sensor_id;sensor_type;location;lat;lon;timestamp;P1;durP1;ratioP1;P2;durP2;ratioP2
34296;SDS011;20564;42.902;25.336;2022-10-16T00:01:20;2.53;;;1.52;;
34296;SDS011;20564;42.902;25.336;2022-10-16T00:03:50;1.70;;;0.88;;
34296;SDS011;20564;42.902;25.336;2022-10-16T00:06:19;4.15;;;1.33;;
34296;SDS011;20564;42.902;25.336;2022-10-16T00:08:48;3.08;;;0.98;;
34296;SDS011;20564;42.902;25.336;2022-10-16T00:11:26;1.80;;;1.08;;
34296;SDS011;20564;42.902;25.336;2022-10-16T00:13:58;1.23;;;0.75;;
34296;SDS011;20564;42.902;25.336;2022-10-16T00:16:27;4.28;;;1.55;;
34296;SDS011;20564;42.902;25.336;2022-10-16T00:18:55;2.45;;;1.30;;
34296;SDS011;20564;42.902;25.336;2022-10-16T00:21:25;3.05;;;1.05;;
34296;SDS011;20564;42.902;25.336;2022-10-16T00:23:54;2.33;;;0.88;;
34296;SDS011;20564;42.902;25.336;2022-10-16T00:26:27;2.58;;;1.08;;
34296;SDS011;20564;42.902;25.336;2022-10-16T00:28:55;2.15;;;1.17;;
34296;SDS011;20564;42.902;25.336;2022-10-16T00:31:23;2.45;;;1.13;;
34296;SDS011;20564;42.902;25.336;2022-10-16T00:33:51;1.45;;;0.50;;
34296;SDS011;20564;42.902;25.336;2022-10-16T00:38:49;2.53;;;1.13;;
34296;SDS011;20564;42.902;25.336;2022-10-16T00:41:22;2.83;;;1.27;;
34296;SDS011;20564;42.902;25.336;2022-10-16T00:43:58;2.15;;;1.00;;
34296;SDS011;20564;42.902;25.336;2022-10-16T00:46:33;0.88;;;0.70;;
34296;SDS011;20564;42.902;25.336;2022-10-16T00:49:10;2.00;;;0.90;;
34296;SDS011;20564;42.902;25.336;2022-10-16T00:51:50;1.50;;;0.80;;
34296;SDS011;20564;42.902;25.336;2022-10-16T00:54:24;2.05;;;1.48;;
34296;SDS011;20564;42.902;25.336;2022-10-16T00:56:57;3.58;;;1.52;;
34296;SDS011;20564;42.902;25.336;2022-10-16T00:59:28;1.35;;;0.93;;
34296;SDS011;20564;42.902;25.336;2022-10-16T01:01:58;2.15;;;0.85;;
34296;SDS011;20564;42.902;25.336;2022-10-16T01:04:26;2.33;;;1.25;;
34296;SDS011;20564;42.902;25.336;2022-10-16T01:15:34;3.35;;;1.88;;
34296;SDS011;20564;42.902;25.336;2022-10-16T01:18:11;1.80;;;1.05;;
34296;SDS011;20564;42.902;25.336;2022-10-16T01:20:47;1.13;;;0.90;;
34296;SDS011;20564;42.902;25.336;2022-10-16T01:28:51;1.35;;;1.05;;
34296;SDS011;20564;42.902;25.336;2022-10-16T01:31:24;2.63;;;0.77;;
34296;SDS011;20564;42.902;25.336;2022-10-16T01:34:01;0.85;;;0.52;;
34296;SDS011;20564;42.902;25.336;2022-10-16T01:36:39;1.20;;;0.75;;
34296;SDS011;20564;42.902;25.336;2022-10-16T01:39:20;2.00;;;0.70;;
34296;SDS011;20564;42.902;25.336;2022-10-16T01:41:52;0.57;;;0.40;;
34296;SDS011;20564;42.902;25.336;2022-10-16T01:44:26;0.73;;;0.50;;
34296;SDS011;20564;42.902;25.336;2022-10-16T01:46:58;1.05;;;0.80;;
34296;SDS011;20564;42.902;25.336;2022-10-16T01:49:27;1.20;;;0.70;;
34296;SDS011;20564;42.902;25.336;2022-10-16T01:51:59;2.17;;;1.23;;
34296;SDS011;20564;42.902;25.336;2022-10-16T01:54:30;1.48;;;0.90;;
34296;SDS011;20564;42.902;25.336;2022-10-16T01:57:01;3.05;;;1.60;;
34296;SDS011;20564;42.902;25.336;2022-10-16T01:59:31;1.67;;;0.98;;
34296;SDS011;20564;42.902;25.336;2022-10-16T02:02:04;2.30;;;1.08;;
34296;SDS011;20564;42.902;25.336;2022-10-16T02:04:36;2.63;;;1.02;;
34296;SDS011;20564;42.902;25.336;2022-10-16T02:07:08;1.65;;;1.02;;
34296;SDS011;20564;42.902;25.336;2022-10-16T02:12:19;1.02;;;0.75;;
34296;SDS011;20564;42.902;25.336;2022-10-16T02:14:53;1.08;;;0.75;;
34296;SDS011;20564;42.902;25.336;2022-10-16T02:17:20;3.65;;;1.05;;
34296;SDS011;20564;42.902;25.336;2022-10-16T02:19:49;4.40;;;1.25;;
34296;SDS011;20564;42.902;25.336;2022-10-16T02:22:24;3.25;;;0.60;;
34296;SDS011;20564;42.902;25.336;2022-10-16T02:25:02;2.47;;;1.00;;
34296;SDS011;20564;42.902;25.336;2022-10-16T02:27:34;3.35;;;1.25;;
34296;SDS011;20564;42.902;25.336;2022-10-16T02:30:09;1.67;;;1.25;;
34296;SDS011;20564;42.902;25.336;2022-10-16T02:32:42;2.78;;;1.10;;
34296;SDS011;20564;42.902;25.336;2022-10-16T02:35:11;1.38;;;0.95;;
34296;SDS011;20564;42.902;25.336;2022-10-16T02:37:39;1.77;;;0.90;;
34296;SDS011;20564;42.902;25.336;2022-10-16T02:40:07;1.33;;;0.60;;
34296;SDS011;20564;42.902;25.336;2022-10-16T02:42:36;1.98;;;1.13;;
34296;SDS011;20564;42.902;25.336;2022-10-16T02:45:06;1.10;;;0.43;;
34296;SDS011;20564;42.902;25.336;2022-10-16T02:47:37;1.20;;;0.40;;
34296;SDS011;20564;42.902;25.336;2022-10-16T02:50:05;1.27;;;1.00;;
34296;SDS011;20564;42.902;25.336;2022-10-16T02:52:32;2.33;;;1.40;;
34296;SDS011;20564;42.902;25.336;2022-10-16T02:54:59;1.80;;;1.23;;
34296;SDS011;20564;42.902;25.336;2022-10-16T02:57:26;1.42;;;0.90;;
34296;SDS011;20564;42.902;25.336;2022-10-16T02:59:54;2.25;;;1.38;;
34296;SDS011;20564;42.902;25.336;2022-10-16T03:02:22;0.90;;;0.75;;
34296;SDS011;20564;42.902;25.336;2022-10-16T03:04:49;1.30;;;0.80;;
34296;SDS011;20564;42.902;25.336;2022-10-16T03:07:16;2.67;;;1.08;;
34296;SDS011;20564;42.902;25.336;2022-10-16T03:09:43;2.35;;;0.93;;
34296;SDS011;20564;42.902;25.336;2022-10-16T03:12:10;1.97;;;0.70;;
34296;SDS011;20564;42.902;25.336;2022-10-16T03:14:38;1.77;;;1.08;;
34296;SDS011;20564;42.902;25.336;2022-10-16T03:17:06;1.95;;;1.02;;
34296;SDS011;20564;42.902;25.336;2022-10-16T03:19:33;1.45;;;1.02;;
34296;SDS011;20564;42.902;25.336;2022-10-16T03:22:19;2.72;;;1.33;;
34296;SDS011;20564;42.902;25.336;2022-10-16T03:24:46;2.57;;;0.73;;
34296;SDS011;20564;42.902;25.336;2022-10-16T03:27:14;1.63;;;0.95;;
34296;SDS011;20564;42.902;25.336;2022-10-16T03:29:41;2.63;;;0.82;;
34296;SDS011;20564;42.902;25.336;2022-10-16T03:32:08;1.90;;;1.05;;
34296;SDS011;20564;42.902;25.336;2022-10-16T03:34:35;1.88;;;1.25;;
34296;SDS011;20564;42.902;25.336;2022-10-16T03:37:03;2.55;;;0.75;;
34296;SDS011;20564;42.902;25.336;2022-10-16T03:39:30;2.05;;;1.40;;
34296;SDS011;20564;42.902;25.336;2022-10-16T03:41:57;4.60;;;0.90;;
34296;SDS011;20564;42.902;25.336;2022-10-16T03:44:24;1.48;;;1.05;;
34296;SDS011;20564;42.902;25.336;2022-10-16T03:46:51;0.63;;;0.37;;
34296;SDS011;20564;42.902;25.336;2022-10-16T03:49:19;2.35;;;0.50;;
34296;SDS011;20564;42.902;25.336;2022-10-16T03:51:46;1.40;;;0.75;;
34296;SDS011;20564;42.902;25.336;2022-10-16T03:54:13;1.05;;;0.77;;
34296;SDS011;20564;42.902;25.336;2022-10-16T03:56:40;1.73;;;1.27;;
34296;SDS011;20564;42.902;25.336;2022-10-16T03:59:07;2.00;;;1.03;;
34296;SDS011;20564;42.902;25.336;2022-10-16T04:01:34;2.28;;;1.08;;
34296;SDS011;20564;42.902;25.336;2022-10-16T04:04:04;1.60;;;0.97;;
34296;SDS011;20564;42.902;25.336;2022-10-16T04:06:32;0.95;;;0.73;;
34296;SDS011;20564;42.902;25.336;2022-10-16T04:08:59;1.03;;;0.43;;
34296;SDS011;20564;42.902;25.336;2022-10-16T04:11:26;1.20;;;0.83;;
34296;SDS011;20564;42.902;25.336;2022-10-16T04:13:53;1.45;;;0.98;;
34296;SDS011;20564;42.902;25.336;2022-10-16T04:16:21;1.65;;;0.90;;
34296;SDS011;20564;42.902;25.336;2022-10-16T04:18:48;2.88;;;0.98;;
34296;SDS011;20564;42.902;25.336;2022-10-16T04:21:15;2.67;;;0.97;;
34296;SDS011;20564;42.902;25.336;2022-10-16T04:23:42;1.20;;;0.93;;
34296;SDS011;20564;42.902;25.336;2022-10-16T04:26:10;1.67;;;0.82;;
34296;SDS011;20564;42.902;25.336;2022-10-16T04:28:37;0.93;;;0.52;;
34296;SDS011;20564;42.902;25.336;2022-10-16T04:31:05;1.88;;;1.02;;
34296;SDS011;20564;42.902;25.336;2022-10-16T04:33:33;3.33;;;1.73;;
34296;SDS011;20564;42.902;25.336;2022-10-16T04:36:01;2.00;;;0.68;;
34296;SDS011;20564;42.902;25.336;2022-10-16T04:38:29;6.18;;;2.63;;
34296;SDS011;20564;42.902;25.336;2022-10-16T04:40:56;0.80;;;0.45;;
34296;SDS011;20564;42.902;25.336;2022-10-16T04:43:23;2.08;;;1.13;;
34296;SDS011;20564;42.902;25.336;2022-10-16T04:45:50;1.33;;;1.07;;
34296;SDS011;20564;42.902;25.336;2022-10-16T04:48:18;2.88;;;2.08;;
34296;SDS011;20564;42.902;25.336;2022-10-16T04:50:45;2.47;;;1.25;;
34296;SDS011;20564;42.902;25.336;2022-10-16T04:53:20;2.40;;;1.08;;
34296;SDS011;20564;42.902;25.336;2022-10-16T04:55:47;1.25;;;0.77;;
34296;SDS011;20564;42.902;25.336;2022-10-16T04:58:14;1.90;;;0.70;;
34296;SDS011;20564;42.902;25.336;2022-10-16T05:00:41;2.95;;;1.45;;
34296;SDS011;20564;42.902;25.336;2022-10-16T05:03:08;0.50;;;0.23;;
34296;SDS011;20564;42.902;25.336;2022-10-16T05:05:36;1.98;;;0.60;;
34296;SDS011;20564;42.902;25.336;2022-10-16T05:08:03;0.50;;;0.47;;
34296;SDS011;20564;42.902;25.336;2022-10-16T05:10:30;0.90;;;0.57;;
34296;SDS011;20564;42.902;25.336;2022-10-16T05:12:57;6.80;;;1.42;;
34296;SDS011;20564;42.902;25.336;2022-10-16T05:15:25;2.43;;;0.90;;
34296;SDS011;20564;42.902;25.336;2022-10-16T05:17:55;1.75;;;1.25;;
34296;SDS011;20564;42.902;25.336;2022-10-16T05:20:22;1.70;;;1.15;;
34296;SDS011;20564;42.902;25.336;2022-10-16T05:22:50;2.28;;;1.27;;
34296;SDS011;20564;42.902;25.336;2022-10-16T05:25:17;3.05;;;1.40;;
34296;SDS011;20564;42.902;25.336;2022-10-16T05:27:48;1.63;;;0.98;;
34296;SDS011;20564;42.902;25.336;2022-10-16T05:30:16;2.40;;;1.25;;
34296;SDS011;20564;42.902;25.336;2022-10-16T05:35:16;4.95;;;1.70;;
34296;SDS011;20564;42.902;25.336;2022-10-16T05:37:44;8.85;;;1.75;;
34296;SDS011;20564;42.902;25.336;2022-10-16T05:40:11;4.47;;;0.98;;
34296;SDS011;20564;42.902;25.336;2022-10-16T05:42:39;1.17;;;0.95;;
34296;SDS011;20564;42.902;25.336;2022-10-16T05:45:08;1.40;;;1.00;;
34296;SDS011;20564;42.902;25.336;2022-10-16T05:47:37;2.03;;;1.05;;
34296;SDS011;20564;42.902;25.336;2022-10-16T05:50:04;5.80;;;2.22;;
34296;SDS011;20564;42.902;25.336;2022-10-16T05:52:32;2.08;;;1.20;;
34296;SDS011;20564;42.902;25.336;2022-10-16T05:54:59;2.20;;;1.63;;
34296;SDS011;20564;42.902;25.336;2022-10-16T05:57:26;2.45;;;1.30;;
34296;SDS011;20564;42.902;25.336;2022-10-16T05:59:54;3.28;;;1.42;;
34296;SDS011;20564;42.902;25.336;2022-10-16T06:02:21;1.57;;;1.37;;
34296;SDS011;20564;42.902;25.336;2022-10-16T06:04:49;2.70;;;1.60;;
34296;SDS011;20564;42.902;25.336;2022-10-16T06:07:20;0.75;;;0.57;;
34296;SDS011;20564;42.902;25.336;2022-10-16T06:09:51;3.83;;;1.30;;
34296;SDS011;20564;42.902;25.336;2022-10-16T06:12:19;3.63;;;1.60;;
34296;SDS011;20564;42.902;25.336;2022-10-16T06:14:46;3.67;;;1.15;;
34296;SDS011;20564;42.902;25.336;2022-10-16T06:17:15;2.65;;;1.33;;
34296;SDS011;20564;42.902;25.336;2022-10-16T06:19:42;4.10;;;2.10;;
34296;SDS011;20564;42.902;25.336;2022-10-16T06:22:09;4.53;;;2.42;;
34296;SDS011;20564;42.902;25.336;2022-10-16T06:24:36;4.13;;;1.60;;
34296;SDS011;20564;42.902;25.336;2022-10-16T06:27:04;5.95;;;3.17;;
34296;SDS011;20564;42.902;25.336;2022-10-16T06:29:31;4.13;;;2.78;;
34296;SDS011;20564;42.902;25.336;2022-10-16T06:31:58;4.38;;;2.15;;
34296;SDS011;20564;42.902;25.336;2022-10-16T06:34:26;3.78;;;1.65;;
34296;SDS011;20564;42.902;25.336;2022-10-16T06:36:53;4.22;;;2.08;;
34296;SDS011;20564;42.902;25.336;2022-10-16T06:39:20;3.25;;;1.65;;
34296;SDS011;20564;42.902;25.336;2022-10-16T06:41:47;4.40;;;1.58;;
34296;SDS011;20564;42.902;25.336;2022-10-16T06:44:15;3.90;;;2.10;;
34296;SDS011;20564;42.902;25.336;2022-10-16T06:46:42;2.10;;;1.30;;
34296;SDS011;20564;42.902;25.336;2022-10-16T06:49:09;3.38;;;1.63;;
34296;SDS011;20564;42.902;25.336;2022-10-16T06:51:37;4.15;;;1.98;;
34296;SDS011;20564;42.902;25.336;2022-10-16T06:54:09;3.25;;;1.75;;
34296;SDS011;20564;42.902;25.336;2022-10-16T06:56:36;4.60;;;2.03;;
34296;SDS011;20564;42.902;25.336;2022-10-16T06:59:04;7.03;;;2.53;;
34296;SDS011;20564;42.902;25.336;2022-10-16T07:01:32;2.95;;;1.45;;
34296;SDS011;20564;42.902;25.336;2022-10-16T07:04:00;4.80;;;1.63;;
34296;SDS011;20564;42.902;25.336;2022-10-16T07:06:30;3.35;;;1.95;;
34296;SDS011;20564;42.902;25.336;2022-10-16T07:09:00;3.70;;;1.50;;
34296;SDS011;20564;42.902;25.336;2022-10-16T07:11:28;10.15;;;2.72;;
34296;SDS011;20564;42.902;25.336;2022-10-16T07:13:55;4.63;;;2.07;;
34296;SDS011;20564;42.902;25.336;2022-10-16T07:16:23;4.23;;;1.90;;
34296;SDS011;20564;42.902;25.336;2022-10-16T07:18:55;2.60;;;1.40;;
34296;SDS011;20564;42.902;25.336;2022-10-16T07:21:27;13.88;;;2.78;;
34296;SDS011;20564;42.902;25.336;2022-10-16T07:23:58;4.32;;;2.05;;
34296;SDS011;20564;42.902;25.336;2022-10-16T07:26:28;2.67;;;1.30;;
34296;SDS011;20564;42.902;25.336;2022-10-16T07:28:57;1.65;;;1.00;;
34296;SDS011;20564;42.902;25.336;2022-10-16T07:31:25;2.42;;;1.40;;
34296;SDS011;20564;42.902;25.336;2022-10-16T07:33:53;4.85;;;2.15;;
34296;SDS011;20564;42.902;25.336;2022-10-16T07:36:24;2.47;;;1.17;;
34296;SDS011;20564;42.902;25.336;2022-10-16T07:38:52;2.53;;;1.23;;
34296;SDS011;20564;42.902;25.336;2022-10-16T07:41:25;4.97;;;1.48;;
34296;SDS011;20564;42.902;25.336;2022-10-16T07:43:53;3.25;;;1.75;;
34296;SDS011;20564;42.902;25.336;2022-10-16T07:46:22;3.53;;;1.75;;
34296;SDS011;20564;42.902;25.336;2022-10-16T07:48:49;5.57;;;1.70;;
34296;SDS011;20564;42.902;25.336;2022-10-16T07:51:18;3.25;;;1.73;;
34296;SDS011;20564;42.902;25.336;2022-10-16T07:53:46;3.75;;;2.05;;
34296;SDS011;20564;42.902;25.336;2022-10-16T07:56:14;3.80;;;1.80;;
34296;SDS011;20564;42.902;25.336;2022-10-16T07:58:42;3.92;;;2.30;;
34296;SDS011;20564;42.902;25.336;2022-10-16T08:01:13;8.55;;;1.90;;
34296;SDS011;20564;42.902;25.336;2022-10-16T08:03:43;4.32;;;2.10;;
34296;SDS011;20564;42.902;25.336;2022-10-16T08:06:14;2.35;;;1.23;;
34296;SDS011;20564;42.902;25.336;2022-10-16T08:08:42;2.78;;;1.02;;
34296;SDS011;20564;42.902;25.336;2022-10-16T08:11:09;2.58;;;1.35;;
34296;SDS011;20564;42.902;25.336;2022-10-16T08:13:37;3.08;;;1.35;;
34296;SDS011;20564;42.902;25.336;2022-10-16T08:16:04;3.08;;;1.40;;
34296;SDS011;20564;42.902;25.336;2022-10-16T08:18:34;3.20;;;1.45;;
34296;SDS011;20564;42.902;25.336;2022-10-16T08:21:03;2.92;;;1.55;;
34296;SDS011;20564;42.902;25.336;2022-10-16T08:23:32;3.53;;;1.75;;
34296;SDS011;20564;42.902;25.336;2022-10-16T08:26:06;4.95;;;2.15;;
34296;SDS011;20564;42.902;25.336;2022-10-16T08:28:34;7.80;;;3.70;;
34296;SDS011;20564;42.902;25.336;2022-10-16T08:31:06;6.60;;;3.33;;
34296;SDS011;20564;42.902;25.336;2022-10-16T08:33:34;7.05;;;3.00;;
34296;SDS011;20564;42.902;25.336;2022-10-16T08:36:02;8.68;;;4.05;;
34296;SDS011;20564;42.902;25.336;2022-10-16T08:38:31;8.43;;;3.85;;
34296;SDS011;20564;42.902;25.336;2022-10-16T08:46:46;6.05;;;3.13;;
34296;SDS011;20564;42.902;25.336;2022-10-16T08:49:39;4.75;;;2.45;;
34296;SDS011;20564;42.902;25.336;2022-10-16T08:52:12;7.18;;;3.10;;
34296;SDS011;20564;42.902;25.336;2022-10-16T08:54:45;7.53;;;2.95;;
34296;SDS011;20564;42.902;25.336;2022-10-16T08:57:20;6.55;;;2.47;;
34296;SDS011;20564;42.902;25.336;2022-10-16T08:59:50;6.93;;;3.22;;
34296;SDS011;20564;42.902;25.336;2022-10-16T09:02:23;8.27;;;3.25;;
34296;SDS011;20564;42.902;25.336;2022-10-16T09:05:02;8.68;;;3.13;;
34296;SDS011;20564;42.902;25.336;2022-10-16T09:07:52;4.47;;;2.58;;
34296;SDS011;20564;42.902;25.336;2022-10-16T09:13:31;4.13;;;2.15;;
34296;SDS011;20564;42.902;25.336;2022-10-16T09:21:31;6.28;;;2.67;;
34296;SDS011;20564;42.902;25.336;2022-10-16T09:24:12;7.20;;;3.05;;
34296;SDS011;20564;42.902;25.336;2022-10-16T09:26:43;7.70;;;2.78;;
34296;SDS011;20564;42.902;25.336;2022-10-16T09:29:11;4.13;;;1.73;;
34296;SDS011;20564;42.902;25.336;2022-10-16T09:31:40;5.03;;;1.83;;
34296;SDS011;20564;42.902;25.336;2022-10-16T09:37:09;5.35;;;2.08;;
34296;SDS011;20564;42.902;25.336;2022-10-16T09:39:46;4.90;;;2.35;;
34296;SDS011;20564;42.902;25.336;2022-10-16T09:42:19;2.80;;;0.90;;
34296;SDS011;20564;42.902;25.336;2022-10-16T09:44:57;3.58;;;1.55;;
34296;SDS011;20564;42.902;25.336;2022-10-16T09:47:26;3.90;;;1.75;;
34296;SDS011;20564;42.902;25.336;2022-10-16T09:49:56;2.70;;;1.80;;
34296;SDS011;20564;42.902;25.336;2022-10-16T09:52:32;3.30;;;2.00;;
34296;SDS011;20564;42.902;25.336;2022-10-16T09:55:01;2.75;;;1.25;;
34296;SDS011;20564;42.902;25.336;2022-10-16T09:57:51;2.53;;;1.58;;
34296;SDS011;20564;42.902;25.336;2022-10-16T10:00:22;4.05;;;1.65;;
34296;SDS011;20564;42.902;25.336;2022-10-16T10:02:50;2.75;;;1.45;;
34296;SDS011;20564;42.902;25.336;2022-10-16T10:05:24;2.70;;;1.55;;
34296;SDS011;20564;42.902;25.336;2022-10-16T10:07:57;3.03;;;0.95;;
34296;SDS011;20564;42.902;25.336;2022-10-16T10:10:27;2.40;;;0.90;;
34296;SDS011;20564;42.902;25.336;2022-10-16T10:12:56;3.70;;;1.50;;
34296;SDS011;20564;42.902;25.336;2022-10-16T10:20:24;1.55;;;1.02;;
34296;SDS011;20564;42.902;25.336;2022-10-16T10:22:51;1.90;;;1.00;;
34296;SDS011;20564;42.902;25.336;2022-10-16T10:25:32;3.33;;;1.05;;
34296;SDS011;20564;42.902;25.336;2022-10-16T10:28:23;3.13;;;1.50;;
34296;SDS011;20564;42.902;25.336;2022-10-16T10:38:59;3.05;;;1.48;;
34296;SDS011;20564;42.902;25.336;2022-10-16T10:47:06;2.78;;;1.05;;
34296;SDS011;20564;42.902;25.336;2022-10-16T10:50:21;1.75;;;0.98;;
34296;SDS011;20564;42.902;25.336;2022-10-16T10:52:57;3.58;;;1.30;;
34296;SDS011;20564;42.902;25.336;2022-10-16T10:58:10;3.25;;;1.08;;
34296;SDS011;20564;42.902;25.336;2022-10-16T11:09:00;1.23;;;1.00;;
34296;SDS011;20564;42.902;25.336;2022-10-16T11:11:45;2.70;;;1.08;;
34296;SDS011;20564;42.902;25.336;2022-10-16T11:17:02;3.45;;;1.10;;
34296;SDS011;20564;42.902;25.336;2022-10-16T11:19:46;3.15;;;1.02;;
34296;SDS011;20564;42.902;25.336;2022-10-16T11:24:54;3.13;;;1.13;;
34296;SDS011;20564;42.902;25.336;2022-10-16T11:27:38;2.65;;;0.85;;
34296;SDS011;20564;42.902;25.336;2022-10-16T11:30:14;3.92;;;1.90;;
34296;SDS011;20564;42.902;25.336;2022-10-16T11:33:03;3.53;;;1.50;;
34296;SDS011;20564;42.902;25.336;2022-10-16T11:38:31;3.00;;;1.63;;
34296;SDS011;20564;42.902;25.336;2022-10-16T11:41:42;3.58;;;1.15;;
34296;SDS011;20564;42.902;25.336;2022-10-16T11:44:34;3.63;;;1.10;;
34296;SDS011;20564;42.902;25.336;2022-10-16T11:50:09;4.43;;;1.17;;
34296;SDS011;20564;42.902;25.336;2022-10-16T11:55:41;3.38;;;1.33;;
34296;SDS011;20564;42.902;25.336;2022-10-16T12:03:42;2.88;;;1.10;;
34296;SDS011;20564;42.902;25.336;2022-10-16T12:09:02;2.75;;;0.80;;
34296;SDS011;20564;42.902;25.336;2022-10-16T12:16:39;2.35;;;1.25;;
34296;SDS011;20564;42.902;25.336;2022-10-16T12:19:18;6.18;;;1.98;;
34296;SDS011;20564;42.902;25.336;2022-10-16T12:21:46;2.53;;;1.55;;
34296;SDS011;20564;42.902;25.336;2022-10-16T12:27:05;3.88;;;1.00;;
34296;SDS011;20564;42.902;25.336;2022-10-16T12:29:46;2.97;;;1.63;;
34296;SDS011;20564;42.902;25.336;2022-10-16T12:35:25;2.92;;;1.33;;
34296;SDS011;20564;42.902;25.336;2022-10-16T12:38:03;2.92;;;1.25;;
34296;SDS011;20564;42.902;25.336;2022-10-16T12:40:33;1.85;;;1.20;;
34296;SDS011;20564;42.902;25.336;2022-10-16T12:43:24;1.90;;;1.08;;
34296;SDS011;20564;42.902;25.336;2022-10-16T12:45:58;1.58;;;0.95;;
34296;SDS011;20564;42.902;25.336;2022-10-16T12:48:47;3.00;;;1.08;;
34296;SDS011;20564;42.902;25.336;2022-10-16T12:54:11;3.33;;;1.47;;
34296;SDS011;20564;42.902;25.336;2022-10-16T13:00:10;2.13;;;1.17;;
34296;SDS011;20564;42.902;25.336;2022-10-16T13:05:54;2.15;;;0.80;;
34296;SDS011;20564;42.902;25.336;2022-10-16T13:08:46;2.20;;;1.05;;
34296;SDS011;20564;42.902;25.336;2022-10-16T13:20:20;0.88;;;0.57;;
34296;SDS011;20564;42.902;25.336;2022-10-16T13:23:08;1.60;;;1.00;;
34296;SDS011;20564;42.902;25.336;2022-10-16T13:28:35;4.63;;;1.52;;
34296;SDS011;20564;42.902;25.336;2022-10-16T13:31:05;1.48;;;0.88;;
34296;SDS011;20564;42.902;25.336;2022-10-16T13:33:48;1.45;;;0.85;;
34296;SDS011;20564;42.902;25.336;2022-10-16T13:36:27;2.08;;;0.70;;
34296;SDS011;20564;42.902;25.336;2022-10-16T13:39:15;1.45;;;0.80;;
34296;SDS011;20564;42.902;25.336;2022-10-16T13:42:07;2.55;;;1.08;;
34296;SDS011;20564;42.902;25.336;2022-10-16T13:44:46;2.15;;;1.02;;
34296;SDS011;20564;42.902;25.336;2022-10-16T13:47:21;2.10;;;1.00;;
34296;SDS011;20564;42.902;25.336;2022-10-16T13:54:55;3.75;;;0.50;;
34296;SDS011;20564;42.902;25.336;2022-10-16T13:57:27;2.53;;;1.05;;
34296;SDS011;20564;42.902;25.336;2022-10-16T13:59:54;2.58;;;1.10;;
34296;SDS011;20564;42.902;25.336;2022-10-16T14:02:31;6.22;;;1.75;;
34296;SDS011;20564;42.902;25.336;2022-10-16T14:05:04;3.70;;;1.00;;
34296;SDS011;20564;42.902;25.336;2022-10-16T14:07:36;2.00;;;1.00;;
34296;SDS011;20564;42.902;25.336;2022-10-16T14:12:53;2.85;;;0.93;;
34296;SDS011;20564;42.902;25.336;2022-10-16T14:15:32;2.47;;;1.52;;
34296;SDS011;20564;42.902;25.336;2022-10-16T14:18:01;1.63;;;0.98;;
34296;SDS011;20564;42.902;25.336;2022-10-16T14:20:33;2.40;;;1.17;;
34296;SDS011;20564;42.902;25.336;2022-10-16T14:23:02;3.70;;;1.48;;
34296;SDS011;20564;42.902;25.336;2022-10-16T14:25:31;1.75;;;1.00;;
34296;SDS011;20564;42.902;25.336;2022-10-16T14:28:02;9.90;;;1.05;;
34296;SDS011;20564;42.902;25.336;2022-10-16T14:30:54;2.08;;;1.48;;
34296;SDS011;20564;42.902;25.336;2022-10-16T14:38:38;2.65;;;1.45;;
34296;SDS011;20564;42.902;25.336;2022-10-16T14:41:06;1.85;;;0.98;;
34296;SDS011;20564;42.902;25.336;2022-10-16T14:43:39;2.25;;;0.93;;
34296;SDS011;20564;42.902;25.336;2022-10-16T14:46:17;2.40;;;0.85;;
34296;SDS011;20564;42.902;25.336;2022-10-16T14:48:52;2.70;;;1.02;;
34296;SDS011;20564;42.902;25.336;2022-10-16T14:51:27;2.83;;;1.70;;
34296;SDS011;20564;42.902;25.336;2022-10-16T14:53:54;1.92;;;1.13;;
34296;SDS011;20564;42.902;25.336;2022-10-16T14:56:27;3.05;;;1.10;;
34296;SDS011;20564;42.902;25.336;2022-10-16T14:58:58;4.97;;;1.52;;
34296;SDS011;20564;42.902;25.336;2022-10-16T15:01:27;2.47;;;1.30;;
34296;SDS011;20564;42.902;25.336;2022-10-16T15:03:54;3.47;;;0.90;;
34296;SDS011;20564;42.902;25.336;2022-10-16T15:06:22;4.88;;;1.63;;
34296;SDS011;20564;42.902;25.336;2022-10-16T15:08:49;2.33;;;1.20;;
34296;SDS011;20564;42.902;25.336;2022-10-16T15:11:16;2.92;;;1.35;;
34296;SDS011;20564;42.902;25.336;2022-10-16T15:13:45;2.78;;;1.30;;
34296;SDS011;20564;42.902;25.336;2022-10-16T15:16:14;2.25;;;1.33;;
34296;SDS011;20564;42.902;25.336;2022-10-16T15:18:43;2.63;;;1.27;;
34296;SDS011;20564;42.902;25.336;2022-10-16T15:21:15;3.88;;;1.55;;
34296;SDS011;20564;42.902;25.336;2022-10-16T15:23:51;4.95;;;1.80;;
34296;SDS011;20564;42.902;25.336;2022-10-16T15:26:18;3.45;;;1.45;;
34296;SDS011;20564;42.902;25.336;2022-10-16T15:28:46;4.07;;;1.38;;
34296;SDS011;20564;42.902;25.336;2022-10-16T15:31:13;5.70;;;1.95;;
34296;SDS011;20564;42.902;25.336;2022-10-16T15:33:40;2.38;;;1.65;;
34296;SDS011;20564;42.902;25.336;2022-10-16T15:36:08;6.07;;;2.90;;
34296;SDS011;20564;42.902;25.336;2022-10-16T15:38:37;3.58;;;1.60;;
34296;SDS011;20564;42.902;25.336;2022-10-16T15:41:04;5.00;;;2.03;;
34296;SDS011;20564;42.902;25.336;2022-10-16T15:43:32;5.65;;;2.63;;
34296;SDS011;20564;42.902;25.336;2022-10-16T15:46:03;4.35;;;2.03;;
34296;SDS011;20564;42.902;25.336;2022-10-16T15:48:36;3.70;;;2.17;;
34296;SDS011;20564;42.902;25.336;2022-10-16T15:51:04;5.38;;;2.30;;
34296;SDS011;20564;42.902;25.336;2022-10-16T15:53:33;5.20;;;2.08;;
34296;SDS011;20564;42.902;25.336;2022-10-16T15:56:04;5.15;;;2.00;;
34296;SDS011;20564;42.902;25.336;2022-10-16T15:58:32;6.55;;;2.38;;
34296;SDS011;20564;42.902;25.336;2022-10-16T16:01:00;5.57;;;2.00;;
34296;SDS011;20564;42.902;25.336;2022-10-16T16:03:28;4.88;;;2.53;;
34296;SDS011;20564;42.902;25.336;2022-10-16T16:05:56;5.10;;;2.58;;
34296;SDS011;20564;42.902;25.336;2022-10-16T16:08:24;6.63;;;2.83;;
34296;SDS011;20564;42.902;25.336;2022-10-16T16:11:05;6.45;;;2.72;;
34296;SDS011;20564;42.902;25.336;2022-10-16T16:13:34;3.88;;;2.40;;
34296;SDS011;20564;42.902;25.336;2022-10-16T16:16:10;10.93;;;5.65;;
34296;SDS011;20564;42.902;25.336;2022-10-16T16:18:40;8.82;;;3.83;;
34296;SDS011;20564;42.902;25.336;2022-10-16T16:21:10;7.18;;;3.13;;
34296;SDS011;20564;42.902;25.336;2022-10-16T16:23:38;5.65;;;2.80;;
34296;SDS011;20564;42.902;25.336;2022-10-16T16:28:58;6.00;;;3.08;;
34296;SDS011;20564;42.902;25.336;2022-10-16T16:31:27;10.45;;;5.53;;
34296;SDS011;20564;42.902;25.336;2022-10-16T16:33:55;9.85;;;4.25;;
34296;SDS011;20564;42.902;25.336;2022-10-16T16:36:23;8.25;;;3.83;;
34296;SDS011;20564;42.902;25.336;2022-10-16T16:38:51;7.00;;;3.20;;
34296;SDS011;20564;42.902;25.336;2022-10-16T16:41:20;4.35;;;2.63;;
34296;SDS011;20564;42.902;25.336;2022-10-16T16:43:50;7.78;;;3.70;;
34296;SDS011;20564;42.902;25.336;2022-10-16T16:46:18;11.60;;;2.58;;
34296;SDS011;20564;42.902;25.336;2022-10-16T16:51:14;6.63;;;3.67;;
34296;SDS011;20564;42.902;25.336;2022-10-16T16:53:48;5.78;;;2.55;;
34296;SDS011;20564;42.902;25.336;2022-10-16T16:56:17;6.15;;;2.92;;
34296;SDS011;20564;42.902;25.336;2022-10-16T16:58:45;5.15;;;1.85;;
34296;SDS011;20564;42.902;25.336;2022-10-16T17:01:13;7.20;;;2.88;;
34296;SDS011;20564;42.902;25.336;2022-10-16T17:03:46;4.13;;;1.90;;
34296;SDS011;20564;42.902;25.336;2022-10-16T17:06:17;3.70;;;1.85;;
34296;SDS011;20564;42.902;25.336;2022-10-16T17:08:47;5.00;;;2.33;;
34296;SDS011;20564;42.902;25.336;2022-10-16T17:11:19;5.78;;;2.22;;
34296;SDS011;20564;42.902;25.336;2022-10-16T17:13:50;3.75;;;2.10;;
34296;SDS011;20564;42.902;25.336;2022-10-16T17:16:23;4.55;;;2.13;;
34296;SDS011;20564;42.902;25.336;2022-10-16T17:18:58;4.65;;;1.85;;